createdAt,value
2023-01-29T00:02:07.963Z,99.90
2023-01-29T00:04:35.589Z,99.90
2023-01-29T00:07:03.320Z,99.90
2023-01-29T00:09:32.035Z,99.90
2023-01-29T00:11:59.758Z,99.90
2023-01-29T00:14:27.620Z,99.90
2023-01-29T00:16:55.523Z,99.90
2023-01-29T00:19:23.314Z,99.90
2023-01-29T00:21:50.960Z,99.90
2023-01-29T00:24:18.603Z,99.90
2023-01-29T00:26:46.454Z,99.90
2023-01-29T00:29:14.180Z,99.90
2023-01-29T00:31:45.441Z,99.90
2023-01-29T00:34:13.225Z,99.90
2023-01-29T00:36:40.901Z,99.90
2023-01-29T00:39:10.884Z,99.90
2023-01-29T00:41:57.934Z,99.90
2023-01-29T00:44:43.973Z,99.90
2023-01-29T00:47:30.002Z,99.90
2023-01-29T00:49:57.846Z,99.90
2023-01-29T00:52:25.875Z,99.90
2023-01-29T00:54:57.906Z,99.90
2023-01-29T00:57:27.551Z,99.90
2023-01-29T00:59:56.419Z,99.90
2023-01-29T01:02:43.311Z,99.90
2023-01-29T01:05:18.331Z,99.90
2023-01-29T01:07:51.281Z,99.90
2023-01-29T01:10:33.381Z,99.90
2023-01-29T01:13:04.454Z,99.90
2023-01-29T01:15:35.907Z,99.90
2023-01-29T01:18:04.758Z,99.90
2023-01-29T01:20:34.616Z,99.90
2023-01-29T01:23:03.671Z,99.90
2023-01-29T01:25:31.692Z,99.90
2023-01-29T01:30:27.757Z,99.90
2023-01-29T01:32:56.352Z,99.90
2023-01-29T01:35:24.024Z,99.90
2023-01-29T01:37:51.939Z,99.90
2023-01-29T01:40:22.127Z,99.90
2023-01-29T01:42:51.885Z,99.90
2023-01-29T01:45:35.650Z,99.90
2023-01-29T01:48:13.356Z,99.90
2023-01-29T01:50:50.396Z,99.90
2023-01-29T01:53:38.661Z,99.90
2023-01-29T01:56:19.941Z,99.90
2023-01-29T01:58:52.054Z,99.90
2023-01-29T02:01:28.868Z,99.90
2023-01-29T02:04:45.285Z,99.90
2023-01-29T02:07:33.726Z,99.90
2023-01-29T02:10:09.127Z,99.90
2023-01-29T02:12:38.419Z,99.90
2023-01-29T02:15:07.163Z,99.90
2023-01-29T02:17:36.125Z,99.90
2023-01-29T02:20:09.872Z,99.90
2023-01-29T02:22:59.324Z,99.90
2023-01-29T02:25:49.173Z,99.90
2023-01-29T02:28:28.605Z,99.90
2023-01-29T02:31:11.384Z,99.90
2023-01-29T02:33:46.319Z,99.90
2023-01-29T02:36:29.043Z,99.90
2023-01-29T02:39:05.805Z,99.90
2023-01-29T02:41:58.230Z,99.90
2023-01-29T02:44:34.812Z,99.90
2023-01-29T02:47:09.018Z,99.90
2023-01-29T02:49:46.839Z,99.90
2023-01-29T02:52:33.285Z,99.90
2023-01-29T02:55:10.478Z,99.90
2023-01-29T02:57:42.862Z,99.90
2023-01-29T03:00:26.509Z,99.90
2023-01-29T03:03:13.602Z,99.90
2023-01-29T03:06:02.316Z,99.90
2023-01-29T03:08:45.736Z,99.90
2023-01-29T03:11:16.418Z,99.90
2023-01-29T03:13:53.462Z,99.90
2023-01-29T03:16:25.046Z,99.90
2023-01-29T03:18:58.149Z,99.90
2023-01-29T03:21:52.903Z,99.90
2023-01-29T03:24:54.221Z,99.90
2023-01-29T03:27:47.512Z,99.90
2023-01-29T03:30:37.046Z,99.90
2023-01-29T03:33:26.117Z,99.90
2023-01-29T03:36:02.627Z,99.90
2023-01-29T03:38:32.189Z,99.90
2023-01-29T03:41:12.135Z,99.90
2023-01-29T03:43:56.905Z,99.90
2023-01-29T03:47:13.858Z,99.90
2023-01-29T03:49:53.033Z,99.90
2023-01-29T03:52:51.585Z,99.90
2023-01-29T03:56:07.253Z,99.90
2023-01-29T03:58:59.386Z,99.90
2023-01-29T04:01:54.513Z,99.90
2023-01-29T04:04:33.751Z,99.90
2023-01-29T04:07:13.787Z,99.90
2023-01-29T04:10:10.717Z,99.90
2023-01-29T04:12:58.671Z,99.90
2023-01-29T04:15:31.117Z,99.90
2023-01-29T04:17:58.978Z,99.90
2023-01-29T04:20:50.283Z,99.90
2023-01-29T04:23:27.259Z,99.90
2023-01-29T04:26:24.521Z,99.90
2023-01-29T04:29:19.983Z,99.90
2023-01-29T04:32:11.272Z,99.90
2023-01-29T04:34:58.099Z,99.90
2023-01-29T04:37:37.860Z,99.90
2023-01-29T04:40:23.486Z,99.90
2023-01-29T04:43:14.551Z,99.90
2023-01-29T04:46:12.393Z,99.90
2023-01-29T04:49:17.096Z,99.90
2023-01-29T04:52:15.828Z,99.90
2023-01-29T04:55:16.019Z,99.90
2023-01-29T04:57:52.461Z,99.90
2023-01-29T05:00:24.644Z,99.90
2023-01-29T05:02:53.536Z,99.90
2023-01-29T05:05:21.653Z,99.90
2023-01-29T05:07:49.428Z,99.90
2023-01-29T05:10:20.392Z,99.90
2023-01-29T05:12:55.281Z,99.90
2023-01-29T05:15:32.085Z,99.90
2023-01-29T05:18:02.991Z,99.90
2023-01-29T05:20:36.788Z,99.90
2023-01-29T05:23:04.833Z,99.90
2023-01-29T05:25:33.634Z,99.90
2023-01-29T05:28:16.758Z,99.90
2023-01-29T05:30:50.189Z,99.90
2023-01-29T05:33:21.135Z,99.90
2023-01-29T05:35:50.071Z,99.90
2023-01-29T05:38:19.105Z,99.90
2023-01-29T05:40:47.035Z,99.90
2023-01-29T05:43:25.319Z,99.90
2023-01-29T05:45:57.931Z,99.90
2023-01-29T05:48:27.734Z,99.90
2023-01-29T05:51:00.156Z,99.90
2023-01-29T05:53:29.649Z,99.90
2023-01-29T05:55:57.355Z,99.90
2023-01-29T05:58:25.427Z,99.90
2023-01-29T06:00:53.052Z,99.90
2023-01-29T06:03:20.766Z,99.90
2023-01-29T06:05:48.485Z,99.90
2023-01-29T06:08:16.097Z,99.90
2023-01-29T06:10:43.703Z,99.90
2023-01-29T06:13:11.353Z,99.90
2023-01-29T06:15:40.856Z,99.90
2023-01-29T06:18:08.470Z,99.90
2023-01-29T06:20:36.835Z,99.90
2023-01-29T06:23:04.480Z,99.90
2023-01-29T06:25:32.227Z,99.90
2023-01-29T06:28:02.461Z,99.90
2023-01-29T06:30:31.933Z,99.90
2023-01-29T06:33:01.674Z,99.90
2023-01-29T06:35:29.423Z,99.90
2023-01-29T06:37:57.359Z,99.90
2023-01-29T06:40:24.936Z,99.90
2023-01-29T06:42:52.635Z,99.90
2023-01-29T06:45:20.690Z,99.90
2023-01-29T06:47:48.531Z,99.90
2023-01-29T06:50:16.637Z,99.90
2023-01-29T06:52:44.414Z,99.90
2023-01-29T06:55:12.277Z,99.90
2023-01-29T06:57:39.992Z,99.90
2023-01-29T07:00:08.292Z,99.90
2023-01-29T07:02:35.924Z,99.90
2023-01-29T07:05:03.780Z,99.90
2023-01-29T07:07:31.535Z,99.90
2023-01-29T07:09:59.146Z,99.90
2023-01-29T07:12:26.760Z,99.90
2023-01-29T07:14:54.464Z,99.90
2023-01-29T07:17:22.227Z,99.90
2023-01-29T07:19:49.955Z,99.90
2023-01-29T07:22:17.521Z,99.90
2023-01-29T07:24:46.321Z,99.90
2023-01-29T07:27:14.195Z,99.90
2023-01-29T07:29:42.195Z,99.90
2023-01-29T07:32:09.947Z,99.90
2023-01-29T07:34:37.621Z,99.90
2023-01-29T07:37:06.341Z,99.90
2023-01-29T07:39:34.027Z,99.90
2023-01-29T07:42:02.543Z,99.90
2023-01-29T07:44:30.122Z,99.90
2023-01-29T07:46:58.353Z,99.90
2023-01-29T07:49:26.203Z,99.90
2023-01-29T07:51:53.944Z,99.90
2023-01-29T07:54:21.982Z,99.90
2023-01-29T07:56:49.961Z,99.90
2023-01-29T07:59:17.901Z,99.90
2023-01-29T08:01:46.475Z,99.90
2023-01-29T08:04:14.145Z,99.90
2023-01-29T08:06:41.791Z,99.90
2023-01-29T08:09:10.124Z,99.90
2023-01-29T08:11:37.875Z,99.90
2023-01-29T08:14:05.611Z,99.90
2023-01-29T08:16:33.455Z,99.90
2023-01-29T08:19:02.538Z,99.90
2023-01-29T08:21:30.238Z,99.90
2023-01-29T08:23:57.919Z,99.90
2023-01-29T08:26:27.340Z,99.90
2023-01-29T08:28:54.990Z,99.90
2023-01-29T08:31:22.707Z,99.90
2023-01-29T08:33:50.605Z,99.90
2023-01-29T08:36:18.235Z,99.90
2023-01-29T08:38:45.899Z,99.90
2023-01-29T08:41:13.529Z,99.90
2023-01-29T08:43:41.258Z,99.90
2023-01-29T08:46:09.064Z,99.90
2023-01-29T08:48:36.806Z,99.90
2023-01-29T08:51:05.315Z,99.90
2023-01-29T08:53:33.333Z,99.90
2023-01-29T08:56:01.257Z,99.90
2023-01-29T08:58:28.915Z,99.90
2023-01-29T09:00:56.698Z,99.90
2023-01-29T09:03:24.454Z,99.90
2023-01-29T09:05:52.051Z,99.90
2023-01-29T09:08:19.745Z,99.90
2023-01-29T09:10:47.350Z,99.90
2023-01-29T09:13:15.008Z,99.90
2023-01-29T09:15:42.607Z,99.90
2023-01-29T09:18:10.383Z,99.90
2023-01-29T09:20:39.138Z,99.90
2023-01-29T09:23:08.237Z,99.90
2023-01-29T09:25:36.741Z,99.90
2023-01-29T09:28:04.583Z,99.90
2023-01-29T09:30:34.644Z,99.90
2023-01-29T09:33:02.391Z,99.90
2023-01-29T09:35:30.284Z,99.90
2023-01-29T09:37:58.197Z,99.90
2023-01-29T09:40:51.763Z,99.90
2023-01-29T09:43:26.895Z,99.90
2023-01-29T09:46:21.171Z,99.90
2023-01-29T09:48:58.740Z,99.90
2023-01-29T09:51:35.780Z,99.90
2023-01-29T09:54:33.116Z,99.90
2023-01-29T09:57:01.511Z,99.90
2023-01-29T09:59:31.488Z,99.90
2023-01-29T10:01:59.372Z,99.90
2023-01-29T10:04:53.701Z,99.90
2023-01-29T10:07:50.190Z,99.80
2023-01-29T10:10:28.123Z,99.90
2023-01-29T10:13:01.851Z,99.70
2023-01-29T10:15:55.355Z,98.60
2023-01-29T10:19:03.064Z,99.00
2023-01-29T10:21:30.594Z,97.70
2023-01-29T10:24:21.257Z,97.30
2023-01-29T10:26:51.755Z,98.20
2023-01-29T10:29:20.591Z,95.90
2023-01-29T10:32:06.019Z,97.90
2023-01-29T10:34:39.289Z,96.30
2023-01-29T10:37:35.044Z,94.20
2023-01-29T10:40:06.775Z,94.50
2023-01-29T10:42:56.380Z,93.90
2023-01-29T10:45:23.936Z,94.80
2023-01-29T10:48:15.678Z,94.60
2023-01-29T10:50:59.775Z,93.70
2023-01-29T10:53:36.162Z,93.40
2023-01-29T10:56:25.239Z,93.50
2023-01-29T10:58:59.583Z,94.10
2023-01-29T11:01:27.523Z,94.40
2023-01-29T11:04:02.244Z,94.00
2023-01-29T11:06:32.779Z,93.00
2023-01-29T11:09:11.462Z,93.30
2023-01-29T11:11:47.900Z,94.50
2023-01-29T11:14:29.202Z,92.50
2023-01-29T11:16:57.562Z,94.10
2023-01-29T11:19:45.330Z,92.50
2023-01-29T11:22:21.962Z,90.80
2023-01-29T11:25:10.751Z,92.30
2023-01-29T11:27:50.239Z,91.30
2023-01-29T11:30:28.731Z,91.70
2023-01-29T11:33:22.571Z,92.40
2023-01-29T11:35:52.637Z,91.80
2023-01-29T11:38:24.565Z,91.50
2023-01-29T11:40:52.956Z,90.90
2023-01-29T11:43:27.048Z,91.10
2023-01-29T11:46:03.743Z,90.00
2023-01-29T11:48:43.744Z,90.80
2023-01-29T11:51:20.481Z,91.40
2023-01-29T11:53:53.287Z,91.60
2023-01-29T11:56:44.173Z,90.00
2023-01-29T11:59:48.962Z,90.90
2023-01-29T12:02:42.233Z,86.10
2023-01-29T12:05:25.775Z,87.90
2023-01-29T12:07:57.075Z,85.60
2023-01-29T12:10:37.171Z,86.50
2023-01-29T12:13:11.077Z,87.20
2023-01-29T12:15:40.662Z,89.80
2023-01-29T12:18:26.502Z,89.60
2023-01-29T12:21:06.372Z,90.70
2023-01-29T12:24:11.844Z,88.50
2023-01-29T12:26:49.487Z,88.60
2023-01-29T12:29:55.995Z,87.40
2023-01-29T12:32:55.603Z,85.90
2023-01-29T12:35:31.781Z,88.70
2023-01-29T12:38:18.808Z,90.00
2023-01-29T12:40:59.271Z,86.90
2023-01-29T12:43:35.941Z,87.80
2023-01-29T12:46:09.750Z,86.60
2023-01-29T12:48:43.439Z,86.30
2023-01-29T12:51:17.215Z,86.80
2023-01-29T12:53:53.715Z,86.60
2023-01-29T12:56:33.068Z,87.50
2023-01-29T12:59:04.815Z,85.40
2023-01-29T13:01:38.977Z,87.30
2023-01-29T13:04:11.817Z,85.20
2023-01-29T13:06:48.105Z,85.00
2023-01-29T13:09:27.303Z,86.20
2023-01-29T13:12:03.461Z,86.90
2023-01-29T13:14:53.138Z,85.50
2023-01-29T13:17:36.212Z,85.20
2023-01-29T13:20:18.781Z,83.60
2023-01-29T13:22:48.605Z,84.40
2023-01-29T13:25:19.253Z,85.20
2023-01-29T13:27:49.264Z,84.40
2023-01-29T13:30:32.421Z,85.30
2023-01-29T13:33:11.715Z,86.00
2023-01-29T13:35:46.164Z,87.10
2023-01-29T13:38:28.478Z,88.20
2023-01-29T13:41:03.548Z,90.70
2023-01-29T13:43:37.451Z,91.90
2023-01-29T13:46:12.429Z,93.50
2023-01-29T13:48:57.242Z,94.60
2023-01-29T13:51:33.043Z,95.20
2023-01-29T13:54:08.920Z,96.60
2023-01-29T13:56:39.707Z,97.00
2023-01-29T13:59:23.281Z,97.00
2023-01-29T14:01:52.633Z,97.30
2023-01-29T14:04:22.933Z,97.20
2023-01-29T14:06:53.086Z,97.60
2023-01-29T14:09:39.141Z,98.00
2023-01-29T14:12:22.164Z,98.20
2023-01-29T14:14:56.792Z,98.20
2023-01-29T14:17:27.185Z,98.30
2023-01-29T14:20:18.767Z,98.90
2023-01-29T14:22:56.299Z,99.60
2023-01-29T14:25:31.226Z,99.30
2023-01-29T14:28:03.376Z,99.90
2023-01-29T14:30:35.108Z,99.90
2023-01-29T14:33:04.107Z,99.90
2023-01-29T14:35:34.388Z,99.90
2023-01-29T14:38:06.249Z,99.90
2023-01-29T14:40:37.469Z,99.90
2023-01-29T14:43:20.005Z,99.90
2023-01-29T14:45:49.470Z,99.90
2023-01-29T14:48:36.830Z,99.90
2023-01-29T14:51:25.288Z,99.90
2023-01-29T14:54:04.872Z,99.90
2023-01-29T14:57:02.476Z,99.90
2023-01-29T14:59:42.305Z,99.90
2023-01-29T15:02:22.134Z,99.90
2023-01-29T15:04:54.876Z,99.90
2023-01-29T15:07:40.273Z,99.90
2023-01-29T15:10:23.615Z,99.90
2023-01-29T15:12:51.705Z,99.90
2023-01-29T15:15:33.701Z,99.90
2023-01-29T15:18:15.635Z,99.90
2023-01-29T15:20:44.583Z,99.90
2023-01-29T15:23:27.568Z,99.90
2023-01-29T15:25:58.230Z,99.90
2023-01-29T15:28:29.321Z,99.90
2023-01-29T15:30:59.302Z,99.90
2023-01-29T15:33:28.007Z,99.90
2023-01-29T15:36:07.845Z,99.90
2023-01-29T15:38:36.461Z,99.90
2023-01-29T15:41:18.438Z,99.90
2023-01-29T15:43:49.655Z,99.90
2023-01-29T15:46:34.364Z,99.90
2023-01-29T15:49:08.597Z,99.90
2023-01-29T15:51:39.718Z,99.90
2023-01-29T15:54:14.012Z,99.90
2023-01-29T15:56:51.579Z,99.90
2023-01-29T15:59:23.753Z,99.90
2023-01-29T16:01:53.092Z,99.90
2023-01-29T16:04:27.070Z,99.90
2023-01-29T16:06:56.647Z,99.90
2023-01-29T16:09:26.884Z,99.90
2023-01-29T16:11:58.882Z,99.90
2023-01-29T16:14:30.235Z,99.90
2023-01-29T16:17:10.714Z,99.90
2023-01-29T16:19:38.517Z,99.90
2023-01-29T16:22:08.584Z,99.90
2023-01-29T16:24:39.340Z,99.90
2023-01-29T16:27:16.185Z,99.90
2023-01-29T16:29:44.380Z,99.90
2023-01-29T16:32:16.284Z,99.90
2023-01-29T16:34:50.620Z,99.90
2023-01-29T16:37:26.644Z,99.90
2023-01-29T16:39:55.248Z,99.90
2023-01-29T16:42:28.333Z,99.90
2023-01-29T16:44:56.183Z,99.90
2023-01-29T16:47:30.288Z,99.90
2023-01-29T16:50:00.228Z,99.90
2023-01-29T16:52:32.355Z,99.90
2023-01-29T16:55:25.720Z,99.90
2023-01-29T16:57:55.382Z,99.90
2023-01-29T17:00:31.007Z,99.90
2023-01-29T17:03:03.737Z,99.90
2023-01-29T17:05:34.592Z,99.90
2023-01-29T17:08:03.248Z,99.90
2023-01-29T17:10:32.278Z,99.90
2023-01-29T17:13:08.713Z,99.90
2023-01-29T17:15:43.741Z,99.90
2023-01-29T17:18:23.241Z,99.90
2023-01-29T17:20:53.096Z,99.90
2023-01-29T17:23:21.812Z,99.90
2023-01-29T17:25:49.617Z,99.90
2023-01-29T17:28:18.422Z,99.90
2023-01-29T17:30:56.561Z,99.90
2023-01-29T17:33:34.139Z,99.90
2023-01-29T17:36:02.516Z,99.90
2023-01-29T17:38:32.812Z,99.90
2023-01-29T17:41:18.827Z,99.90
2023-01-29T17:43:46.651Z,99.90
2023-01-29T17:46:16.757Z,99.90
2023-01-29T17:48:45.061Z,99.90
2023-01-29T17:51:14.784Z,99.90
2023-01-29T17:53:45.897Z,99.90
2023-01-29T17:56:24.138Z,99.90
2023-01-29T17:58:51.967Z,99.90
2023-01-29T18:01:19.811Z,99.90
2023-01-29T18:03:47.512Z,99.90
2023-01-29T18:06:28.499Z,99.90
2023-01-29T18:08:59.132Z,99.90
2023-01-29T18:11:28.197Z,99.90
2023-01-29T18:13:56.578Z,99.90
2023-01-29T18:16:24.681Z,99.90
2023-01-29T18:18:53.053Z,99.90
2023-01-29T18:21:23.525Z,99.90
2023-01-29T18:23:53.765Z,99.90
2023-01-29T18:26:22.843Z,99.90
2023-01-29T18:28:50.557Z,99.90
2023-01-29T18:31:18.386Z,99.90
2023-01-29T18:33:47.392Z,99.90
2023-01-29T18:36:15.191Z,99.90
2023-01-29T18:38:43.224Z,99.90
2023-01-29T18:41:11.385Z,99.90
2023-01-29T18:43:40.829Z,99.90
2023-01-29T18:46:09.122Z,99.90
2023-01-29T18:48:37.242Z,99.90
2023-01-29T18:51:06.504Z,99.90
2023-01-29T18:53:34.175Z,99.90
2023-01-29T18:56:05.099Z,99.90
2023-01-29T18:58:35.849Z,99.90
2023-01-29T19:01:10.117Z,99.90
2023-01-29T19:03:39.446Z,99.90
2023-01-29T19:06:09.960Z,99.90
2023-01-29T19:08:38.490Z,99.90
2023-01-29T19:11:08.229Z,99.90
2023-01-29T19:13:37.221Z,99.90
2023-01-29T19:16:09.954Z,99.90
2023-01-29T19:18:38.238Z,99.90
2023-01-29T19:21:11.410Z,99.90
2023-01-29T19:23:39.744Z,99.90
2023-01-29T19:26:07.987Z,99.90
2023-01-29T19:28:36.948Z,99.90
2023-01-29T19:31:05.261Z,99.90
2023-01-29T19:33:33.075Z,99.90
2023-01-29T19:36:01.112Z,99.90
2023-01-29T19:38:29.285Z,99.90
2023-01-29T19:40:59.301Z,99.90
2023-01-29T19:43:33.573Z,99.90
2023-01-29T19:46:02.205Z,99.90
2023-01-29T19:48:32.274Z,99.90
2023-01-29T19:51:07.063Z,99.90
2023-01-29T19:53:36.408Z,99.90
2023-01-29T19:56:13.799Z,99.90
2023-01-29T19:58:41.996Z,99.90
2023-01-29T20:01:30.650Z,99.90
2023-01-29T20:03:58.596Z,99.90
2023-01-29T20:06:32.569Z,99.90
2023-01-29T20:09:02.899Z,99.90
2023-01-29T20:11:31.550Z,99.90
2023-01-29T20:13:59.797Z,99.90
2023-01-29T20:16:33.245Z,99.90
2023-01-29T20:19:13.679Z,99.90
2023-01-29T20:21:46.488Z,99.90
2023-01-29T20:24:15.790Z,99.90
2023-01-29T20:26:43.865Z,99.90
2023-01-29T20:29:11.837Z,99.90
2023-01-29T20:31:39.954Z,99.90
2023-01-29T20:34:07.832Z,99.90
2023-01-29T20:36:35.771Z,99.90
2023-01-29T20:39:03.834Z,99.90
2023-01-29T20:41:31.813Z,99.90
2023-01-29T20:43:59.524Z,99.90
2023-01-29T20:46:27.433Z,99.90
2023-01-29T20:48:56.757Z,99.90
2023-01-29T20:51:24.990Z,99.90
2023-01-29T20:53:56.266Z,99.90
2023-01-29T20:56:36.332Z,99.90
2023-01-29T20:59:11.998Z,99.90
2023-01-29T21:01:40.015Z,99.90
2023-01-29T21:04:08.007Z,99.90
2023-01-29T21:06:38.243Z,99.90
2023-01-29T21:09:06.092Z,99.90
2023-01-29T21:11:34.558Z,99.90
2023-01-29T21:14:02.289Z,99.90
2023-01-29T21:16:30.278Z,99.90
2023-01-29T21:19:01.501Z,99.90
2023-01-29T21:21:29.178Z,99.90
2023-01-29T21:23:58.299Z,99.90
2023-01-29T21:26:26.011Z,99.90
2023-01-29T21:28:53.813Z,99.90
2023-01-29T21:31:21.908Z,99.90
2023-01-29T21:33:49.651Z,99.90
2023-01-29T21:36:26.397Z,99.90
2023-01-29T21:38:54.184Z,99.90
2023-01-29T21:41:44.375Z,99.90
2023-01-29T21:44:12.612Z,99.90
2023-01-29T21:46:40.359Z,99.90
2023-01-29T21:49:09.397Z,99.90
2023-01-29T21:51:37.088Z,99.90
2023-01-29T21:54:04.809Z,99.90
2023-01-29T21:56:32.512Z,99.90
2023-01-29T21:59:01.666Z,99.90
2023-01-29T22:01:37.899Z,99.90
2023-01-29T22:04:08.718Z,99.90
2023-01-29T22:06:36.408Z,99.90
2023-01-29T22:09:05.078Z,99.90
2023-01-29T22:11:32.775Z,99.90
2023-01-29T22:14:00.490Z,99.90
2023-01-29T22:16:29.909Z,99.90
2023-01-29T22:18:57.590Z,99.90
2023-01-29T22:21:25.343Z,99.90
2023-01-29T22:23:52.954Z,99.90
2023-01-29T22:26:20.693Z,99.90
2023-01-29T22:28:48.422Z,99.90
2023-01-29T22:31:16.089Z,99.90
2023-01-29T22:33:43.740Z,99.90
2023-01-29T22:36:11.736Z,99.90
2023-01-29T22:38:39.429Z,99.90
2023-01-29T22:41:07.075Z,99.90
2023-01-29T22:43:34.796Z,99.90
2023-01-29T22:46:07.012Z,99.90
2023-01-29T22:48:34.939Z,99.90
2023-01-29T22:51:11.865Z,99.90
2023-01-29T22:53:43.167Z,99.90
2023-01-29T22:56:11.849Z,99.90
2023-01-29T22:58:41.111Z,99.90
2023-01-29T23:01:09.387Z,99.90
2023-01-29T23:03:37.140Z,99.90
2023-01-29T23:06:04.944Z,99.90
2023-01-29T23:08:33.696Z,99.90
2023-01-29T23:11:15.095Z,99.90
2023-01-29T23:13:48.893Z,99.90
2023-01-29T23:16:20.315Z,99.90
2023-01-29T23:18:51.703Z,99.90
2023-01-29T23:21:20.866Z,99.90
2023-01-29T23:23:52.303Z,99.90
2023-01-29T23:26:38.369Z,99.90
2023-01-29T23:29:06.065Z,99.90
2023-01-29T23:31:33.761Z,99.90
2023-01-29T23:34:01.491Z,99.90
2023-01-29T23:36:29.651Z,99.90
2023-01-29T23:38:57.539Z,99.90
2023-01-29T23:41:25.224Z,99.90
2023-01-29T23:43:53.189Z,99.90
2023-01-29T23:46:20.925Z,99.90
2023-01-29T23:48:51.289Z,99.90
2023-01-29T23:51:18.984Z,99.90
2023-01-29T23:53:46.708Z,99.90
2023-01-29T23:56:14.389Z,99.90
2023-01-29T23:58:42.170Z,99.90
